createdAt,value
2023-01-03T00:01:48.387Z,8.84
2023-01-03T00:04:16.111Z,9.00
2023-01-03T00:06:54.861Z,8.76
2023-01-03T00:09:26.265Z,8.80
2023-01-03T00:12:13.081Z,8.84
2023-01-03T00:14:45.087Z,8.79
2023-01-03T00:17:13.237Z,8.92
2023-01-03T00:19:43.359Z,8.73
2023-01-03T00:22:14.955Z,8.77
2023-01-03T00:24:48.498Z,8.82
2023-01-03T00:27:16.936Z,8.96
2023-01-03T00:29:44.542Z,8.92
2023-01-03T00:32:14.585Z,8.87
2023-01-03T00:34:45.027Z,8.53
2023-01-03T00:37:13.239Z,8.49
2023-01-03T00:39:43.774Z,8.60
2023-01-03T00:42:13.368Z,8.55
2023-01-03T00:44:42.588Z,8.68
2023-01-03T00:47:09.518Z,8.60
2023-01-03T00:49:36.713Z,8.58
2023-01-03T00:52:03.732Z,8.70
2023-01-03T00:54:30.828Z,8.80
2023-01-03T00:56:57.692Z,8.77
2023-01-03T00:59:27.561Z,8.69
2023-01-03T01:01:57.283Z,8.74
2023-01-03T01:04:30.982Z,8.69
2023-01-03T01:07:02.343Z,8.64
2023-01-03T01:09:35.874Z,8.55
2023-01-03T01:12:04.264Z,8.69
2023-01-03T01:14:33.414Z,8.87
2023-01-03T01:17:07.243Z,8.86
2023-01-03T01:19:38.616Z,8.92
2023-01-03T01:22:06.376Z,8.89
2023-01-03T01:24:34.216Z,8.98
2023-01-03T01:27:01.843Z,8.90
2023-01-03T01:29:31.390Z,8.91
2023-01-03T01:32:01.885Z,9.02
2023-01-03T01:34:30.312Z,9.16
2023-01-03T01:37:00.183Z,8.89
2023-01-03T01:39:28.999Z,8.92
2023-01-03T01:42:24.032Z,8.76
2023-01-03T01:45:03.284Z,8.79
2023-01-03T01:48:06.349Z,8.72
2023-01-03T01:50:48.075Z,8.65
2023-01-03T01:53:16.311Z,8.59
2023-01-03T01:55:54.873Z,8.63
2023-01-03T01:58:29.439Z,8.53
2023-01-03T02:00:56.344Z,8.68
2023-01-03T02:03:23.467Z,8.77
2023-01-03T02:05:53.885Z,8.71
2023-01-03T02:08:25.112Z,8.76
2023-01-03T02:11:10.399Z,8.69
2023-01-03T02:13:42.594Z,8.76
2023-01-03T02:16:18.355Z,8.86
2023-01-03T02:19:35.592Z,8.51
2023-01-03T02:22:36.244Z,8.60
2023-01-03T02:25:18.012Z,8.54
2023-01-03T02:28:24.054Z,8.40
2023-01-03T02:31:00.957Z,8.39
2023-01-03T02:33:48.989Z,8.44
2023-01-03T02:36:47.981Z,8.33
2023-01-03T02:39:40.761Z,8.25
2023-01-03T02:42:40.606Z,8.08
2023-01-03T02:45:33.244Z,8.06
2023-01-03T02:48:53.703Z,8.07
2023-01-03T02:51:42.235Z,8.21
2023-01-03T02:54:18.565Z,8.17
2023-01-03T02:56:59.852Z,8.03
2023-01-03T02:59:41.443Z,7.98
2023-01-03T03:02:11.860Z,8.08
2023-01-03T03:04:43.337Z,8.01
2023-01-03T03:07:32.718Z,8.06
2023-01-03T03:10:18.592Z,8.10
2023-01-03T03:13:12.179Z,8.21
2023-01-03T03:16:42.615Z,8.09
2023-01-03T03:19:55.554Z,8.01
2023-01-03T03:22:50.307Z,7.79
2023-01-03T03:25:37.652Z,7.65
2023-01-03T03:28:37.492Z,7.75
2023-01-03T03:31:25.574Z,7.61
2023-01-03T03:34:07.752Z,7.61
2023-01-03T03:36:49.395Z,7.81
2023-01-03T03:39:36.234Z,7.91
2023-01-03T03:42:33.922Z,7.78
2023-01-03T03:45:34.906Z,7.83
2023-01-03T03:48:09.758Z,7.83
2023-01-03T03:50:41.319Z,7.83
2023-01-03T03:53:12.535Z,7.70
2023-01-03T03:55:51.569Z,7.57
2023-01-03T03:58:28.179Z,7.59
2023-01-03T04:00:58.537Z,7.62
2023-01-03T04:03:26.410Z,7.67
2023-01-03T04:06:02.779Z,7.74
2023-01-03T04:08:29.669Z,7.90
2023-01-03T04:11:05.596Z,7.97
2023-01-03T04:13:37.987Z,7.79
2023-01-03T04:16:06.382Z,7.73
2023-01-03T04:18:36.057Z,7.58
2023-01-03T04:21:05.479Z,7.27
2023-01-03T04:23:34.392Z,7.53
2023-01-03T04:26:03.457Z,7.34
2023-01-03T04:28:30.431Z,7.40
2023-01-03T04:30:59.720Z,7.27
2023-01-03T04:33:26.648Z,7.43
2023-01-03T04:35:53.492Z,7.40
2023-01-03T04:38:20.390Z,7.40
2023-01-03T04:40:49.404Z,7.63
2023-01-03T04:43:37.823Z,7.48
2023-01-03T04:46:04.899Z,7.38
2023-01-03T04:48:34.396Z,7.34
2023-01-03T04:51:01.343Z,7.23
2023-01-03T04:53:30.773Z,7.34
2023-01-03T04:55:57.827Z,7.30
2023-01-03T04:58:25.074Z,7.30
2023-01-03T05:00:52.303Z,7.36
2023-01-03T05:03:24.107Z,7.29
2023-01-03T05:05:52.766Z,7.45
2023-01-03T05:08:19.602Z,7.51
2023-01-03T05:10:52.997Z,7.43
2023-01-03T05:13:22.401Z,7.30
2023-01-03T05:15:50.019Z,7.19
2023-01-03T05:18:16.955Z,7.48
2023-01-03T05:21:03.236Z,7.51
2023-01-03T05:23:48.576Z,7.56
2023-01-03T05:26:21.291Z,7.45
2023-01-03T05:28:53.805Z,7.45
2023-01-03T05:31:23.121Z,7.25
2023-01-03T05:33:52.309Z,7.29
2023-01-03T05:36:19.125Z,7.26
2023-01-03T05:38:46.070Z,7.40
2023-01-03T05:41:39.547Z,7.19
2023-01-03T05:44:09.018Z,7.24
2023-01-03T05:46:36.000Z,7.31
2023-01-03T05:49:05.309Z,7.39
2023-01-03T05:51:32.393Z,7.32
2023-01-03T05:53:59.348Z,7.15
2023-01-03T05:56:26.581Z,7.31
2023-01-03T05:58:53.534Z,7.34
2023-01-03T06:01:20.620Z,7.31
2023-01-03T06:03:48.613Z,7.25
2023-01-03T06:06:16.460Z,7.23
2023-01-03T06:08:45.855Z,7.18
2023-01-03T06:11:17.592Z,7.20
2023-01-03T06:13:45.428Z,7.32
2023-01-03T06:16:36.745Z,7.20
2023-01-03T06:19:05.820Z,7.03
2023-01-03T06:21:33.108Z,6.93
2023-01-03T06:24:00.274Z,7.08
2023-01-03T06:26:27.483Z,7.12
2023-01-03T06:28:54.473Z,6.93
2023-01-03T06:31:26.742Z,6.71
2023-01-03T06:33:54.149Z,6.78
2023-01-03T06:36:23.243Z,6.52
2023-01-03T06:38:50.326Z,6.47
2023-01-03T06:41:20.239Z,6.78
2023-01-03T06:43:47.085Z,6.77
2023-01-03T06:46:33.520Z,6.69
2023-01-03T06:49:19.881Z,6.78
2023-01-03T06:52:07.117Z,6.57
2023-01-03T06:54:37.657Z,6.32
2023-01-03T06:57:05.807Z,6.52
2023-01-03T06:59:32.958Z,6.54
2023-01-03T07:02:02.575Z,6.62
2023-01-03T07:04:29.588Z,6.54
2023-01-03T07:06:56.571Z,6.02
2023-01-03T07:09:26.050Z,6.16
2023-01-03T07:11:52.937Z,6.01
2023-01-03T07:14:22.405Z,6.09
2023-01-03T07:16:49.998Z,6.18
2023-01-03T07:19:19.368Z,6.40
2023-01-03T07:21:48.385Z,6.27
2023-01-03T07:24:18.684Z,6.38
2023-01-03T07:26:45.665Z,6.34
2023-01-03T07:29:12.549Z,6.45
2023-01-03T07:31:41.513Z,6.27
2023-01-03T07:34:09.553Z,6.23
2023-01-03T07:36:39.474Z,6.19
2023-01-03T07:39:06.386Z,6.23
2023-01-03T07:41:51.559Z,6.09
2023-01-03T07:44:18.408Z,6.14
2023-01-03T07:46:47.786Z,6.17
2023-01-03T07:49:14.716Z,6.21
2023-01-03T07:51:43.893Z,6.46
2023-01-03T07:54:11.050Z,6.58
2023-01-03T07:56:40.844Z,6.82
2023-01-03T07:59:12.336Z,6.68
2023-01-03T08:01:41.394Z,6.90
2023-01-03T08:04:08.378Z,6.74
2023-01-03T08:06:35.188Z,6.51
2023-01-03T08:09:20.397Z,6.58
2023-01-03T08:12:05.599Z,6.72
2023-01-03T08:14:32.463Z,6.71
2023-01-03T08:17:01.483Z,6.94
2023-01-03T08:19:30.849Z,8.21
2023-01-03T08:21:57.693Z,8.94
2023-01-03T08:24:24.581Z,8.99
2023-01-03T08:26:53.516Z,7.99
2023-01-03T08:29:20.356Z,7.72
2023-01-03T08:31:56.346Z,7.38
2023-01-03T08:34:30.050Z,7.32
2023-01-03T08:37:04.996Z,7.40
2023-01-03T08:39:42.233Z,7.53
2023-01-03T08:42:13.806Z,7.61
2023-01-03T08:44:41.529Z,8.28
2023-01-03T08:47:09.847Z,8.78
2023-01-03T08:49:37.388Z,9.24
2023-01-03T08:52:04.610Z,9.93
2023-01-03T08:54:32.566Z,11.57
2023-01-03T08:57:01.928Z,11.87
2023-01-03T08:59:33.962Z,12.85
2023-01-03T09:02:02.347Z,14.06
2023-01-03T09:04:29.373Z,15.13
2023-01-03T09:07:01.695Z,15.72
2023-01-03T09:09:28.677Z,17.06
2023-01-03T09:11:55.543Z,18.99
2023-01-03T09:14:22.413Z,19.80
2023-01-03T09:16:49.739Z,19.92
2023-01-03T09:19:17.052Z,19.42
2023-01-03T09:21:45.960Z,20.16
2023-01-03T09:24:15.095Z,20.48
2023-01-03T09:26:41.927Z,20.55
2023-01-03T09:29:11.300Z,19.96
2023-01-03T09:31:40.436Z,20.07
2023-01-03T09:34:07.510Z,19.42
2023-01-03T09:36:40.435Z,19.39
2023-01-03T09:39:09.753Z,17.83
2023-01-03T09:41:39.355Z,16.96
2023-01-03T09:44:09.065Z,15.19
2023-01-03T09:46:38.869Z,13.93
2023-01-03T09:49:07.375Z,12.99
2023-01-03T09:52:05.806Z,12.34
2023-01-03T09:54:57.419Z,11.37
2023-01-03T09:57:47.607Z,10.72
2023-01-03T10:00:43.625Z,10.53
2023-01-03T10:03:50.197Z,10.27
2023-01-03T10:06:36.149Z,10.19
2023-01-03T10:09:35.376Z,10.37
2023-01-03T10:12:13.946Z,9.86
2023-01-03T10:15:29.612Z,9.63
2023-01-03T10:18:27.290Z,9.69
2023-01-03T10:21:35.222Z,9.66
2023-01-03T10:24:21.235Z,9.65
2023-01-03T10:26:56.187Z,10.78
2023-01-03T10:29:25.348Z,14.39
2023-01-03T10:32:20.892Z,15.60
2023-01-03T10:35:04.625Z,15.40
2023-01-03T10:37:36.514Z,14.79
2023-01-03T10:40:05.197Z,13.66
2023-01-03T10:42:37.588Z,12.86
2023-01-03T10:45:17.631Z,12.80
2023-01-03T10:48:00.639Z,12.39
2023-01-03T10:50:29.140Z,12.01
2023-01-03T10:53:08.057Z,11.99
2023-01-03T10:55:44.631Z,14.14
2023-01-03T10:58:30.596Z,17.48
2023-01-03T11:01:30.677Z,18.74
2023-01-03T11:04:19.627Z,21.51
2023-01-03T11:07:15.499Z,23.77
2023-01-03T11:09:53.625Z,24.74
2023-01-03T11:12:39.650Z,22.37
2023-01-03T11:15:39.807Z,24.14
2023-01-03T11:18:18.067Z,25.94
2023-01-03T11:21:12.777Z,27.06
2023-01-03T11:23:39.581Z,26.02
2023-01-03T11:26:35.735Z,26.95
2023-01-03T11:29:48.213Z,26.64
2023-01-03T11:32:43.254Z,23.87
2023-01-03T11:35:37.842Z,23.59
2023-01-03T11:38:26.063Z,24.91
2023-01-03T11:41:19.246Z,25.64
2023-01-03T11:43:57.952Z,21.79
2023-01-03T11:47:34.036Z,19.98
2023-01-03T11:50:20.520Z,19.07
2023-01-03T11:52:57.380Z,17.58
2023-01-03T11:56:01.599Z,18.95
2023-01-03T11:58:43.460Z,22.04
2023-01-03T12:01:50.630Z,23.36
2023-01-03T12:04:29.307Z,24.86
2023-01-03T12:10:14.656Z,25.53
2023-01-03T12:13:01.908Z,24.76
2023-01-03T12:16:33.493Z,23.73
2023-01-03T12:19:11.997Z,23.65
2023-01-03T12:21:48.663Z,22.89
2023-01-03T12:24:34.629Z,22.36
2023-01-03T12:30:06.334Z,19.66
2023-01-03T12:33:05.550Z,18.89
2023-01-03T12:35:47.150Z,20.93
2023-01-03T12:38:16.867Z,21.96
2023-01-03T12:40:57.084Z,22.80
2023-01-03T12:43:38.069Z,23.94
2023-01-03T12:46:23.664Z,23.90
2023-01-03T12:49:24.421Z,24.62
2023-01-03T12:51:53.394Z,24.94
2023-01-03T12:54:43.025Z,25.25
2023-01-03T12:57:34.903Z,26.07
2023-01-03T13:00:32.561Z,24.99
2023-01-03T13:03:16.498Z,25.96
2023-01-03T13:05:50.452Z,25.23
2023-01-03T13:08:26.176Z,24.65
2023-01-03T13:10:58.311Z,24.82
2023-01-03T13:13:25.618Z,25.62
2023-01-03T13:15:54.091Z,24.73
2023-01-03T13:18:24.003Z,23.58
2023-01-03T13:20:53.325Z,21.99
2023-01-03T13:23:35.567Z,20.86
2023-01-03T13:26:10.326Z,21.04
2023-01-03T13:28:41.188Z,21.46
2023-01-03T13:31:14.518Z,21.22
2023-01-03T13:34:15.995Z,21.71
2023-01-03T13:37:21.902Z,21.76
2023-01-03T13:39:51.490Z,20.63
2023-01-03T13:42:30.568Z,20.93
2023-01-03T13:45:15.791Z,21.65
2023-01-03T13:48:26.581Z,20.54
2023-01-03T13:51:26.481Z,19.58
2023-01-03T13:54:11.307Z,19.90
2023-01-03T13:56:44.455Z,20.63
2023-01-03T13:59:35.549Z,20.50
2023-01-03T14:02:57.388Z,19.41
2023-01-03T14:06:30.601Z,18.46
2023-01-03T14:09:16.038Z,18.75
2023-01-03T14:12:37.471Z,17.64
2023-01-03T14:15:25.841Z,16.40
2023-01-03T14:18:01.918Z,15.06
2023-01-03T14:20:36.152Z,14.25
2023-01-03T14:23:48.271Z,13.76
2023-01-03T14:26:04.639Z,12.84
2023-01-03T14:28:33.766Z,12.50
2023-01-03T14:31:03.285Z,11.94
2023-01-03T14:33:36.637Z,11.62
2023-01-03T14:36:08.809Z,11.59
2023-01-03T14:38:36.423Z,11.08
2023-01-03T14:41:03.459Z,10.85
2023-01-03T14:43:33.585Z,10.96
2023-01-03T14:46:06.367Z,10.77
2023-01-03T14:48:33.784Z,10.76
2023-01-03T14:51:05.416Z,10.58
2023-01-03T14:53:33.999Z,10.38
2023-01-03T14:56:01.288Z,10.52
2023-01-03T14:58:45.252Z,10.47
2023-01-03T15:01:15.526Z,10.33
2023-01-03T15:03:49.827Z,10.28
2023-01-03T15:06:20.827Z,10.08
2023-01-03T15:08:53.372Z,10.19
2023-01-03T15:11:33.237Z,10.17
2023-01-03T15:14:07.186Z,9.88
2023-01-03T15:16:40.885Z,9.73
2023-01-03T15:19:14.830Z,9.78
2023-01-03T15:21:44.548Z,9.92
2023-01-03T15:24:18.361Z,9.81
2023-01-03T15:26:51.993Z,9.76
2023-01-03T15:29:28.558Z,9.54
2023-01-03T15:31:57.691Z,9.62
2023-01-03T15:34:30.606Z,9.56
2023-01-03T15:37:23.384Z,9.51
2023-01-03T15:39:57.271Z,9.55
2023-01-03T15:42:57.934Z,9.40
2023-01-03T15:45:33.152Z,9.27
2023-01-03T15:48:11.541Z,9.36
2023-01-03T15:50:50.671Z,9.19
2023-01-03T15:53:21.492Z,9.09
2023-01-03T15:55:57.306Z,9.13
2023-01-03T15:58:28.471Z,9.00
2023-01-03T16:00:55.890Z,8.95
2023-01-03T16:03:26.296Z,9.11
2023-01-03T16:05:53.360Z,9.37
2023-01-03T16:08:30.743Z,9.30
2023-01-03T16:11:04.204Z,9.34
2023-01-03T16:13:41.620Z,9.28
2023-01-03T16:16:11.797Z,9.39
2023-01-03T16:18:49.038Z,9.36
2023-01-03T16:21:20.909Z,9.42
2023-01-03T16:23:47.858Z,9.31
2023-01-03T16:26:18.576Z,9.29
2023-01-03T16:28:50.303Z,9.32
2023-01-03T16:31:25.293Z,8.96
2023-01-03T16:33:53.561Z,9.04
2023-01-03T16:36:38.060Z,8.98
2023-01-03T16:39:10.487Z,8.95
2023-01-03T16:41:37.322Z,9.05
2023-01-03T16:44:05.251Z,9.20
2023-01-03T16:46:38.688Z,9.07
2023-01-03T16:49:09.392Z,8.92
2023-01-03T16:51:39.498Z,9.07
2023-01-03T16:54:12.702Z,9.24
2023-01-03T16:56:39.590Z,9.03
2023-01-03T16:59:20.305Z,9.20
2023-01-03T17:01:52.789Z,9.04
2023-01-03T17:04:19.953Z,9.25
2023-01-03T17:06:49.345Z,9.03
2023-01-03T17:09:29.455Z,8.73
2023-01-03T17:11:56.364Z,8.68
2023-01-03T17:14:23.642Z,8.60
2023-01-03T17:16:53.504Z,8.73
2023-01-03T17:22:26.274Z,8.47
2023-01-03T17:24:53.204Z,8.30
2023-01-03T17:27:31.747Z,8.03
2023-01-03T17:30:04.713Z,8.07
2023-01-03T17:32:31.941Z,8.01
2023-01-03T17:34:58.830Z,7.87
2023-01-03T17:37:26.422Z,7.91
2023-01-03T17:39:57.575Z,8.10
2023-01-03T17:42:29.270Z,8.04
2023-01-03T17:45:14.587Z,8.06
2023-01-03T17:48:02.024Z,7.85
2023-01-03T17:50:34.568Z,7.86
2023-01-03T17:53:04.665Z,7.88
2023-01-03T17:55:34.070Z,7.99
2023-01-03T17:58:04.313Z,7.93
2023-01-03T18:00:32.069Z,8.03
2023-01-03T18:03:02.355Z,8.12
2023-01-03T18:05:30.318Z,8.07
2023-01-03T18:08:00.882Z,8.07
2023-01-03T18:10:35.594Z,8.10
2023-01-03T18:13:36.324Z,8.28
2023-01-03T18:16:04.502Z,8.09
2023-01-03T18:18:32.501Z,8.32
2023-01-03T18:21:02.440Z,8.34
2023-01-03T18:23:37.712Z,8.28
2023-01-03T18:26:11.764Z,8.47
2023-01-03T18:28:38.806Z,8.10
2023-01-03T18:31:07.137Z,8.29
2023-01-03T18:33:34.149Z,8.13
2023-01-03T18:36:01.441Z,8.29
2023-01-03T18:38:38.017Z,8.32
2023-01-03T18:41:06.361Z,8.44
2023-01-03T18:43:34.202Z,8.61
2023-01-03T18:46:01.357Z,8.56
2023-01-03T18:48:31.553Z,8.64
2023-01-03T18:50:59.942Z,8.76
2023-01-03T18:53:31.630Z,8.84
2023-01-03T18:56:00.082Z,8.78
2023-01-03T18:58:40.147Z,8.85
2023-01-03T19:01:07.380Z,8.73
2023-01-03T19:03:36.159Z,8.78
2023-01-03T19:06:15.120Z,8.53
2023-01-03T19:08:45.431Z,8.48
2023-01-03T19:11:29.742Z,8.47
2023-01-03T19:14:00.178Z,8.32
2023-01-03T19:16:31.616Z,8.12
2023-01-03T19:19:00.031Z,8.17
2023-01-03T19:21:35.905Z,8.23
2023-01-03T19:24:19.963Z,8.41
2023-01-03T19:27:07.184Z,8.68
2023-01-03T19:29:37.636Z,8.64
2023-01-03T19:32:12.195Z,8.33
2023-01-03T19:34:39.067Z,8.43
2023-01-03T19:37:09.064Z,8.68
2023-01-03T19:39:37.792Z,8.61
2023-01-03T19:42:29.919Z,8.30
2023-01-03T19:44:59.690Z,8.48
2023-01-03T19:47:26.664Z,8.40
2023-01-03T19:49:55.238Z,8.47
2023-01-03T19:52:24.896Z,8.34
2023-01-03T19:54:51.920Z,8.38
2023-01-03T19:57:32.209Z,8.24
2023-01-03T20:00:01.567Z,8.44
2023-01-03T20:02:40.198Z,8.52
2023-01-03T20:05:25.562Z,8.68
2023-01-03T20:07:53.018Z,8.63
2023-01-03T20:10:25.525Z,8.76
2023-01-03T20:12:57.519Z,8.69
2023-01-03T20:15:30.699Z,8.55
2023-01-03T20:17:58.320Z,8.41
2023-01-03T20:20:30.498Z,8.21
2023-01-03T20:23:07.095Z,8.45
2023-01-03T20:25:37.105Z,8.52
2023-01-03T20:28:05.197Z,8.29
2023-01-03T20:30:34.277Z,8.37
2023-01-03T20:33:01.287Z,8.24
2023-01-03T20:38:24.902Z,8.18
2023-01-03T20:40:53.771Z,8.10
2023-01-03T20:43:21.015Z,8.02
2023-01-03T20:45:57.057Z,7.84
2023-01-03T20:48:26.277Z,8.04
2023-01-03T20:50:53.623Z,7.91
2023-01-03T20:53:26.378Z,7.99
2023-01-03T20:55:54.097Z,8.17
2023-01-03T20:58:27.510Z,8.05
2023-01-03T21:01:04.249Z,8.07
2023-01-03T21:03:38.193Z,8.07
2023-01-03T21:06:23.973Z,8.07
2023-01-03T21:08:57.532Z,7.92
2023-01-03T21:11:29.220Z,8.07
2023-01-03T21:13:59.546Z,7.94
2023-01-03T21:16:45.149Z,8.05
2023-01-03T21:19:21.990Z,8.06
2023-01-03T21:21:54.289Z,7.94
2023-01-03T21:24:23.964Z,7.67
2023-01-03T21:26:50.989Z,7.77
2023-01-03T21:29:22.071Z,7.88
2023-01-03T21:31:51.604Z,7.84
2023-01-03T21:34:23.379Z,7.72
2023-01-03T21:36:54.775Z,7.70
2023-01-03T21:39:21.628Z,7.42
2023-01-03T21:42:08.004Z,7.54
2023-01-03T21:44:37.078Z,7.64
2023-01-03T21:47:03.971Z,7.43
2023-01-03T21:49:30.926Z,7.51
2023-01-03T21:51:57.849Z,7.64
2023-01-03T21:54:24.871Z,7.48
2023-01-03T21:56:54.237Z,7.59
2023-01-03T21:59:23.610Z,7.64
2023-01-03T22:02:09.099Z,7.78
2023-01-03T22:04:36.159Z,7.75
2023-01-03T22:07:03.097Z,7.62
2023-01-03T22:09:50.361Z,7.73
2023-01-03T22:12:18.909Z,7.66
2023-01-03T22:14:46.638Z,7.72
2023-01-03T22:17:14.034Z,7.37
2023-01-03T22:19:41.026Z,7.45
2023-01-03T22:22:10.206Z,7.50
2023-01-03T22:24:37.060Z,7.68
2023-01-03T22:27:03.974Z,7.73
2023-01-03T22:29:30.851Z,7.84
2023-01-03T22:31:57.799Z,7.65
2023-01-03T22:34:24.726Z,7.69
2023-01-03T22:36:51.614Z,7.78
2023-01-03T22:39:18.490Z,7.73
2023-01-03T22:41:52.345Z,7.70
2023-01-03T22:44:21.720Z,7.75
2023-01-03T22:46:51.090Z,7.67
2023-01-03T22:49:22.556Z,7.77
2023-01-03T22:51:49.405Z,7.75
2023-01-03T22:54:20.767Z,7.68
2023-01-03T22:56:49.687Z,7.79
2023-01-03T22:59:19.196Z,7.77
2023-01-03T23:01:46.588Z,7.55
2023-01-03T23:04:14.002Z,7.80
2023-01-03T23:06:41.074Z,7.92
2023-01-03T23:09:07.919Z,7.77
2023-01-03T23:11:53.162Z,7.76
2023-01-03T23:14:22.085Z,7.88
2023-01-03T23:16:57.710Z,7.89
2023-01-03T23:19:26.436Z,7.99
2023-01-03T23:21:54.409Z,8.05
2023-01-03T23:24:24.468Z,7.99
2023-01-03T23:26:52.430Z,8.06
2023-01-03T23:29:22.173Z,8.06
2023-01-03T23:31:52.787Z,8.25
2023-01-03T23:34:21.965Z,8.26
2023-01-03T23:36:49.128Z,8.33
2023-01-03T23:39:18.195Z,8.46
2023-01-03T23:41:45.996Z,8.29
2023-01-03T23:44:12.928Z,8.25
2023-01-03T23:46:42.549Z,8.33
2023-01-03T23:49:13.286Z,8.47
2023-01-03T23:51:40.441Z,8.61
2023-01-03T23:54:07.289Z,8.66
2023-01-03T23:56:34.291Z,8.46
2023-01-03T23:59:04.105Z,8.35
